createdAt,value
2018-08-20T00:01:37.596Z,73.20
2018-08-20T00:04:09.812Z,72.80
2018-08-20T00:06:53.191Z,73.10
2018-08-20T00:09:30.800Z,73.10
2018-08-20T00:11:59.614Z,73.50
2018-08-20T00:14:41.501Z,73.60
2018-08-20T00:17:10.385Z,74.00
2018-08-20T00:19:41.068Z,73.60
2018-08-20T00:22:10.368Z,73.50
2018-08-20T00:24:39.188Z,73.60
2018-08-20T00:27:08.019Z,73.30
2018-08-20T00:29:38.158Z,74.50
2018-08-20T00:32:07.033Z,74.60
2018-08-20T00:34:35.825Z,73.90
2018-08-20T00:37:04.618Z,74.00
2018-08-20T00:39:33.405Z,73.90
2018-08-20T00:42:02.252Z,75.00
2018-08-20T00:44:31.038Z,74.70
2018-08-20T00:46:59.880Z,75.00
2018-08-20T00:49:28.648Z,75.10
2018-08-20T00:51:57.428Z,75.60
2018-08-20T00:54:26.251Z,75.10
2018-08-20T00:56:55.083Z,74.40
2018-08-20T00:59:23.858Z,74.20
2018-08-20T01:01:52.649Z,74.30
2018-08-20T01:04:21.443Z,74.40
2018-08-20T01:06:50.232Z,73.80
2018-08-20T01:09:19.028Z,74.00
2018-08-20T01:11:47.819Z,73.70
2018-08-20T01:14:16.621Z,74.50
2018-08-20T01:16:45.538Z,74.50
2018-08-20T01:19:14.296Z,74.50
2018-08-20T01:21:43.061Z,74.80
2018-08-20T01:24:11.917Z,75.50
2018-08-20T01:26:40.739Z,76.70
2018-08-20T01:29:09.598Z,75.40
2018-08-20T01:31:38.386Z,74.80
2018-08-20T01:34:07.176Z,75.10
2018-08-20T01:36:36.020Z,75.20
2018-08-20T01:39:06.025Z,75.20
2018-08-20T01:41:34.801Z,75.30
2018-08-20T01:44:03.653Z,76.00
2018-08-20T01:46:32.500Z,75.70
2018-08-20T01:49:01.271Z,76.50
2018-08-20T01:51:30.053Z,76.10
2018-08-20T01:53:58.870Z,76.70
2018-08-20T01:56:27.642Z,76.40
2018-08-20T01:58:56.492Z,76.20
2018-08-20T02:01:25.294Z,76.30
2018-08-20T02:03:54.377Z,76.50
2018-08-20T02:06:23.784Z,77.10
2018-08-20T02:08:52.664Z,77.20
2018-08-20T02:11:21.578Z,77.50
2018-08-20T02:13:50.409Z,77.50
2018-08-20T02:16:19.259Z,78.40
2018-08-20T02:18:48.229Z,78.20
2018-08-20T02:21:16.988Z,78.00
2018-08-20T02:23:45.937Z,78.30
2018-08-20T02:26:14.837Z,78.60
2018-08-20T02:28:43.629Z,78.10
2018-08-20T02:31:12.485Z,78.40
2018-08-20T02:33:41.308Z,78.50
2018-08-20T02:36:10.161Z,79.10
2018-08-20T02:38:39.659Z,79.90
2018-08-20T02:41:08.549Z,79.60
2018-08-20T02:43:37.406Z,79.70
2018-08-20T02:46:12.867Z,79.00
2018-08-20T02:48:41.851Z,78.60
2018-08-20T02:51:10.712Z,79.00
2018-08-20T02:53:39.507Z,79.40
2018-08-20T02:56:08.324Z,79.40
2018-08-20T02:58:37.115Z,79.00
2018-08-20T03:01:06.172Z,78.50
2018-08-20T03:03:35.069Z,79.00
2018-08-20T03:06:03.866Z,79.90
2018-08-20T03:08:32.681Z,79.80
2018-08-20T03:11:01.469Z,79.90
2018-08-20T03:13:30.282Z,79.50
2018-08-20T03:15:59.152Z,78.80
2018-08-20T03:18:28.008Z,79.00
2018-08-20T03:20:56.850Z,79.30
2018-08-20T03:23:25.657Z,78.90
2018-08-20T03:25:54.602Z,78.50
2018-08-20T03:28:23.403Z,79.60
2018-08-20T03:30:52.248Z,79.30
2018-08-20T03:33:21.076Z,78.80
2018-08-20T03:35:49.899Z,79.00
2018-08-20T03:38:18.768Z,80.50
2018-08-20T03:40:47.569Z,79.90
2018-08-20T03:43:17.035Z,80.10
2018-08-20T03:45:45.829Z,79.90
2018-08-20T03:48:14.677Z,79.10
2018-08-20T03:50:45.478Z,78.70
2018-08-20T03:53:14.339Z,79.50
2018-08-20T03:55:43.193Z,79.70
2018-08-20T03:58:12.028Z,79.00
2018-08-20T04:00:41.007Z,80.00
2018-08-20T04:03:09.938Z,79.90
2018-08-20T04:05:38.708Z,79.30
2018-08-20T04:08:07.865Z,80.00
2018-08-20T04:10:37.484Z,79.90
2018-08-20T04:13:11.708Z,80.00
2018-08-20T04:15:40.570Z,80.30
2018-08-20T04:18:09.559Z,80.40
2018-08-20T04:20:38.426Z,80.00
2018-08-20T04:23:07.326Z,80.90
2018-08-20T04:25:36.558Z,80.70
2018-08-20T04:28:05.495Z,80.90
2018-08-20T04:30:34.363Z,80.40
2018-08-20T04:33:03.153Z,80.30
2018-08-20T04:35:32.067Z,80.20
2018-08-20T04:38:00.874Z,80.40
2018-08-20T04:40:29.874Z,80.00
2018-08-20T04:42:58.699Z,80.20
2018-08-20T04:45:27.515Z,80.00
2018-08-20T04:47:56.297Z,79.70
2018-08-20T04:50:25.122Z,79.60
2018-08-20T04:52:54.181Z,79.70
2018-08-20T04:55:22.962Z,80.00
2018-08-20T04:57:51.810Z,80.10
2018-08-20T05:00:21.565Z,80.00
2018-08-20T05:02:50.408Z,79.60
2018-08-20T05:05:19.172Z,79.70
2018-08-20T05:07:47.987Z,80.00
2018-08-20T05:10:16.869Z,80.50
2018-08-20T05:12:45.675Z,80.50
2018-08-20T05:15:14.778Z,80.00
2018-08-20T05:17:43.684Z,80.40
2018-08-20T05:20:12.565Z,81.30
2018-08-20T05:22:41.378Z,80.80
2018-08-20T05:25:10.268Z,80.70
2018-08-20T05:27:39.092Z,80.10
2018-08-20T05:30:08.634Z,79.70
2018-08-20T05:32:37.653Z,80.10
2018-08-20T05:35:06.990Z,80.10
2018-08-20T05:37:36.113Z,79.40
2018-08-20T05:40:04.989Z,79.40
2018-08-20T05:42:33.805Z,79.90
2018-08-20T05:45:02.748Z,80.20
2018-08-20T05:47:31.507Z,80.10
2018-08-20T05:50:00.362Z,80.20
2018-08-20T05:52:29.217Z,80.40
2018-08-20T05:54:58.028Z,80.10
2018-08-20T05:57:26.805Z,80.60
2018-08-20T05:59:55.677Z,80.50
2018-08-20T06:02:24.572Z,80.20
2018-08-20T06:04:53.365Z,80.20
2018-08-20T06:07:22.235Z,80.20
2018-08-20T06:09:51.210Z,79.90
2018-08-20T06:12:20.049Z,80.00
2018-08-20T06:14:48.853Z,79.20
2018-08-20T06:17:17.676Z,80.40
2018-08-20T06:19:46.455Z,80.40
2018-08-20T06:22:15.340Z,79.60
2018-08-20T06:24:44.128Z,80.10
2018-08-20T06:27:13.021Z,80.20
2018-08-20T06:29:41.832Z,79.80
2018-08-20T06:32:10.682Z,79.50
2018-08-20T06:34:39.689Z,79.00
2018-08-20T06:37:08.574Z,78.20
2018-08-20T06:39:37.544Z,78.70
2018-08-20T06:42:06.496Z,77.90
2018-08-20T06:44:35.293Z,78.50
2018-08-20T06:47:04.182Z,78.30
2018-08-20T06:49:32.987Z,78.70
2018-08-20T06:52:01.783Z,78.70
2018-08-20T06:54:30.613Z,79.10
2018-08-20T06:56:59.622Z,78.70
2018-08-20T06:59:28.405Z,77.80
2018-08-20T07:01:57.266Z,76.90
2018-08-20T07:04:26.108Z,76.00
2018-08-20T07:06:54.890Z,75.70
2018-08-20T07:09:23.655Z,75.40
2018-08-20T07:11:52.631Z,75.80
2018-08-20T07:14:21.463Z,75.60
2018-08-20T07:16:50.245Z,75.90
2018-08-20T07:19:19.111Z,75.40
2018-08-20T07:21:47.958Z,75.10
2018-08-20T07:24:16.746Z,76.00
2018-08-20T07:26:45.643Z,76.10
2018-08-20T07:29:20.709Z,75.70
2018-08-20T07:31:49.701Z,75.00
2018-08-20T07:34:18.561Z,74.50
2018-08-20T07:36:47.322Z,74.30
2018-08-20T07:39:16.161Z,75.00
2018-08-20T07:41:44.933Z,74.90
2018-08-20T07:44:13.750Z,74.70
2018-08-20T07:46:42.557Z,74.40
2018-08-20T07:49:15.575Z,74.90
2018-08-20T07:51:44.395Z,75.50
2018-08-20T07:54:13.245Z,75.30
2018-08-20T07:56:42.109Z,74.70
2018-08-20T07:59:10.913Z,74.50
2018-08-20T08:01:39.687Z,74.50
2018-08-20T08:04:08.513Z,73.50
2018-08-20T08:06:37.420Z,73.20
2018-08-20T08:09:08.220Z,73.40
2018-08-20T08:11:37.113Z,73.40
2018-08-20T08:14:06.956Z,73.10
2018-08-20T08:16:37.389Z,73.20
2018-08-20T08:19:06.248Z,72.50
2018-08-20T08:21:35.074Z,73.00
2018-08-20T08:24:04.078Z,73.20
2018-08-20T08:26:32.952Z,73.20
2018-08-20T08:29:01.799Z,72.70
2018-08-20T08:31:30.553Z,72.90
2018-08-20T08:33:59.392Z,73.90
2018-08-20T08:36:28.199Z,74.00
2018-08-20T08:38:56.993Z,73.50
2018-08-20T08:41:25.869Z,73.40
2018-08-20T08:43:54.680Z,73.80
2018-08-20T08:46:23.456Z,74.30
2018-08-20T08:48:52.522Z,73.70
2018-08-20T08:51:21.308Z,73.30
2018-08-20T08:53:50.175Z,72.60
2018-08-20T08:56:18.984Z,73.00
2018-08-20T08:58:47.789Z,71.20
2018-08-20T09:01:16.846Z,71.70
2018-08-20T09:03:45.610Z,70.10
2018-08-20T09:06:14.442Z,69.40
2018-08-20T09:08:43.267Z,68.70
2018-08-20T09:11:12.249Z,67.20
2018-08-20T09:13:41.152Z,65.20
2018-08-20T09:16:09.931Z,63.10
2018-08-20T09:18:38.723Z,64.50
2018-08-20T09:21:07.598Z,61.90
2018-08-20T09:23:36.395Z,60.20
2018-08-20T09:26:05.203Z,60.00
2018-08-20T09:28:34.104Z,58.60
2018-08-20T09:31:02.913Z,58.60
2018-08-20T09:33:32.005Z,56.20
2018-08-20T09:36:00.793Z,55.00
2018-08-20T09:38:29.600Z,54.80
2018-08-20T09:40:58.437Z,55.20
2018-08-20T09:43:27.244Z,56.10
2018-08-20T09:45:56.073Z,54.80
2018-08-20T09:48:24.864Z,54.80
2018-08-20T09:50:53.705Z,54.40
2018-08-20T09:53:22.568Z,56.20
2018-08-20T09:55:51.405Z,56.00
2018-08-20T09:58:20.209Z,54.00
2018-08-20T10:00:49.087Z,53.10
2018-08-20T10:03:17.868Z,53.00
2018-08-20T10:05:46.693Z,53.40
2018-08-20T10:08:15.584Z,54.10
2018-08-20T10:10:44.400Z,54.30
2018-08-20T10:13:13.247Z,51.00
2018-08-20T10:15:42.032Z,49.50
2018-08-20T10:18:10.889Z,48.20
2018-08-20T10:20:39.710Z,50.50
2018-08-20T10:23:08.858Z,48.80
2018-08-20T10:25:37.682Z,49.70
2018-08-20T10:28:06.566Z,49.60
2018-08-20T10:30:35.436Z,51.30
2018-08-20T10:33:04.288Z,50.80
2018-08-20T10:35:33.124Z,53.20
2018-08-20T10:38:01.951Z,51.00
2018-08-20T10:40:30.722Z,52.70
2018-08-20T10:43:00.123Z,51.80
2018-08-20T10:45:34.321Z,52.00
2018-08-20T10:48:03.147Z,52.60
2018-08-20T10:50:31.931Z,54.00
2018-08-20T10:53:00.714Z,53.10
2018-08-20T10:55:29.569Z,53.40
2018-08-20T10:57:58.427Z,53.40
2018-08-20T11:00:27.248Z,52.20
2018-08-20T11:02:56.033Z,52.70
2018-08-20T11:05:24.847Z,54.30
2018-08-20T11:07:53.673Z,53.90
2018-08-20T11:10:22.570Z,53.10
2018-08-20T11:12:51.388Z,55.00
2018-08-20T11:15:20.208Z,54.50
2018-08-20T11:17:49.035Z,54.10
2018-08-20T11:20:17.937Z,53.40
2018-08-20T11:22:46.753Z,55.00
2018-08-20T11:25:15.574Z,56.50
2018-08-20T11:27:44.399Z,54.60
2018-08-20T11:30:14.492Z,53.30
2018-08-20T11:32:43.361Z,53.90
2018-08-20T11:35:12.568Z,55.00
2018-08-20T11:37:41.568Z,53.90
2018-08-20T11:40:10.489Z,54.50
2018-08-20T11:42:39.369Z,51.30
2018-08-20T11:45:11.357Z,50.90
2018-08-20T11:47:40.193Z,48.70
2018-08-20T11:50:09.682Z,51.90
2018-08-20T11:52:39.310Z,51.20
2018-08-20T11:55:08.233Z,49.50
2018-08-20T11:57:37.288Z,49.80
2018-08-20T12:00:09.199Z,50.60
2018-08-20T12:02:38.042Z,51.50
2018-08-20T12:05:07.890Z,52.50
2018-08-20T12:07:40.592Z,51.20
2018-08-20T12:10:10.296Z,50.90
2018-08-20T12:12:39.882Z,51.00
2018-08-20T12:15:11.034Z,50.60
2018-08-20T12:17:40.321Z,51.30
2018-08-20T12:20:10.168Z,52.90
2018-08-20T12:22:39.916Z,53.40
2018-08-20T12:25:12.446Z,52.70
2018-08-20T12:27:41.292Z,52.30
2018-08-20T12:30:12.116Z,52.00
2018-08-20T12:32:41.028Z,52.50
2018-08-20T12:35:10.410Z,52.90
2018-08-20T12:37:41.005Z,52.60
2018-08-20T12:40:09.897Z,52.00
2018-08-20T12:42:39.621Z,52.00
2018-08-20T12:45:09.042Z,52.00
2018-08-20T12:47:40.288Z,53.80
2018-08-20T12:50:09.954Z,53.70
2018-08-20T12:52:38.749Z,53.70
2018-08-20T12:55:10.081Z,54.60
2018-08-20T12:57:51.005Z,54.70
2018-08-20T13:00:30.262Z,54.90
2018-08-20T13:02:59.529Z,55.80
2018-08-20T13:05:28.409Z,56.90
2018-08-20T13:07:57.177Z,57.00
2018-08-20T13:10:26.005Z,58.40
2018-08-20T13:12:54.811Z,57.90
2018-08-20T13:15:23.595Z,58.60
2018-08-20T13:17:52.363Z,58.50
2018-08-20T13:20:21.172Z,58.70
2018-08-20T13:22:50.028Z,59.20
2018-08-20T13:25:18.907Z,58.00
2018-08-20T13:27:47.743Z,58.80
2018-08-20T13:30:16.657Z,59.90
2018-08-20T13:32:45.500Z,59.90
2018-08-20T13:35:14.400Z,59.90
2018-08-20T13:37:43.444Z,61.20
2018-08-20T13:40:12.284Z,60.70
2018-08-20T13:42:41.155Z,60.70
2018-08-20T13:45:09.953Z,60.20
2018-08-20T13:47:38.790Z,60.50
2018-08-20T13:50:13.248Z,60.40
2018-08-20T13:52:43.379Z,59.10
2018-08-20T13:55:12.240Z,58.80
2018-08-20T13:57:45.869Z,58.30
2018-08-20T14:00:16.336Z,57.70
2018-08-20T14:02:45.414Z,57.70
2018-08-20T14:05:15.211Z,58.80
2018-08-20T14:07:44.056Z,56.60
2018-08-20T14:10:13.409Z,56.70
2018-08-20T14:12:42.729Z,56.40
2018-08-20T14:15:12.756Z,56.10
2018-08-20T14:17:42.509Z,56.50
2018-08-20T14:20:13.451Z,56.20
2018-08-20T14:22:43.173Z,57.30
2018-08-20T14:25:12.127Z,58.20
2018-08-20T14:27:40.929Z,59.10
2018-08-20T14:30:13.398Z,58.10
2018-08-20T14:32:42.671Z,58.80
2018-08-20T14:35:11.810Z,58.40
2018-08-20T14:37:41.113Z,59.20
2018-08-20T14:40:13.462Z,58.70
2018-08-20T14:42:42.573Z,58.00
2018-08-20T14:45:13.162Z,57.10
2018-08-20T14:47:43.099Z,57.90
2018-08-20T14:50:15.025Z,58.50
2018-08-20T14:52:44.072Z,59.70
2018-08-20T14:55:13.551Z,59.80
2018-08-20T14:57:42.369Z,60.40
2018-08-20T15:00:13.421Z,60.40
2018-08-20T15:02:42.256Z,60.60
2018-08-20T15:05:11.078Z,61.10
2018-08-20T15:07:39.841Z,62.50
2018-08-20T15:10:09.586Z,63.40
2018-08-20T15:12:38.392Z,64.50
2018-08-20T15:15:08.424Z,63.80
2018-08-20T15:17:37.105Z,63.70
2018-08-20T15:20:07.310Z,64.30
2018-08-20T15:22:36.138Z,64.90
2018-08-20T15:25:05.505Z,66.00
2018-08-20T15:30:10.901Z,65.50
2018-08-20T15:32:39.768Z,66.90
2018-08-20T15:35:08.676Z,65.50
2018-08-20T15:37:37.469Z,65.20
2018-08-20T15:40:06.452Z,64.40
2018-08-20T15:42:35.335Z,62.30
2018-08-20T15:45:04.238Z,62.20
2018-08-20T15:47:33.111Z,62.80
2018-08-20T15:50:01.893Z,62.10
2018-08-20T15:52:30.682Z,63.50
2018-08-20T15:54:59.463Z,64.40
2018-08-20T15:57:28.317Z,63.60
2018-08-20T15:59:57.113Z,64.00
2018-08-20T16:02:28.292Z,63.70
2018-08-20T16:04:57.109Z,63.50
2018-08-20T16:07:34.015Z,63.50
2018-08-20T16:10:02.951Z,62.60
2018-08-20T16:12:32.506Z,62.40
2018-08-20T16:15:01.991Z,63.90
2018-08-20T16:17:31.045Z,63.70
2018-08-20T16:20:00.303Z,63.10
2018-08-20T16:22:29.710Z,63.00
2018-08-20T16:24:58.618Z,62.80
2018-08-20T16:27:27.487Z,63.50
2018-08-20T16:30:14.465Z,63.80
2018-08-20T16:32:44.522Z,63.00
2018-08-20T16:35:14.630Z,62.70
2018-08-20T16:37:44.641Z,63.00
2018-08-20T16:40:13.565Z,62.90
2018-08-20T16:42:44.528Z,62.90
2018-08-20T16:45:13.661Z,63.40
2018-08-20T16:47:42.693Z,63.60
2018-08-20T16:50:13.032Z,63.70
2018-08-20T16:52:42.808Z,63.70
2018-08-20T16:55:11.750Z,65.00
2018-08-20T16:57:41.037Z,65.40
2018-08-20T17:00:13.069Z,65.40
2018-08-20T17:02:43.301Z,66.10
2018-08-20T17:05:13.513Z,65.50
2018-08-20T17:07:42.329Z,65.10
2018-08-20T17:10:13.870Z,64.80
2018-08-20T17:12:43.444Z,65.40
2018-08-20T17:15:16.481Z,65.40
2018-08-20T17:17:45.332Z,65.40
2018-08-20T17:20:14.163Z,64.90
2018-08-20T17:22:43.484Z,65.40
2018-08-20T17:25:13.158Z,63.90
2018-08-20T17:27:47.749Z,64.60
2018-08-20T17:30:16.639Z,65.40
2018-08-20T17:32:52.438Z,65.40
2018-08-20T17:35:21.740Z,64.50
2018-08-20T17:37:58.115Z,64.90
2018-08-20T17:40:27.547Z,64.80
2018-08-20T17:42:56.848Z,66.00
2018-08-20T17:45:25.944Z,65.20
2018-08-20T17:47:54.871Z,65.70
2018-08-20T17:50:47.376Z,66.70
2018-08-20T17:53:16.977Z,66.70
2018-08-20T17:55:46.572Z,67.00
2018-08-20T17:58:18.389Z,67.50
2018-08-20T18:00:53.674Z,67.70
2018-08-20T18:03:28.734Z,68.00
2018-08-20T18:06:02.409Z,68.20
2018-08-20T18:08:32.293Z,68.30
2018-08-20T18:11:01.532Z,68.40
2018-08-20T18:13:42.598Z,68.10
2018-08-20T18:16:13.714Z,68.20
2018-08-20T18:18:44.295Z,68.20
2018-08-20T18:21:13.248Z,68.40
2018-08-20T18:23:42.288Z,68.40
2018-08-20T18:26:11.169Z,68.60
2018-08-20T18:28:46.600Z,68.80
2018-08-20T18:31:22.617Z,68.50
2018-08-20T18:33:51.486Z,68.80
2018-08-20T18:36:35.808Z,68.80
2018-08-20T18:39:13.699Z,68.90
2018-08-20T18:42:16.062Z,69.20
2018-08-20T18:44:46.188Z,69.40
2018-08-20T18:47:16.207Z,69.60
2018-08-20T18:49:52.241Z,69.60
2018-08-20T18:52:22.352Z,69.60
2018-08-20T18:54:53.397Z,70.30
2018-08-20T18:57:32.368Z,70.10
2018-08-20T19:00:03.173Z,70.20
2018-08-20T19:02:37.607Z,70.00
2018-08-20T19:05:08.819Z,70.20
2018-08-20T19:07:37.785Z,69.90
2018-08-20T19:10:09.453Z,70.30
2018-08-20T19:12:38.291Z,69.60
2018-08-20T19:15:22.441Z,69.60
2018-08-20T19:17:51.340Z,69.70
2018-08-20T19:20:20.447Z,69.70
2018-08-20T19:22:49.261Z,68.50
2018-08-20T19:25:19.593Z,69.20
2018-08-20T19:27:49.031Z,69.00
2018-08-20T19:30:25.990Z,69.20
2018-08-20T19:32:57.234Z,69.30
2018-08-20T19:35:28.889Z,69.10
2018-08-20T19:37:57.789Z,68.70
2018-08-20T19:40:27.807Z,69.40
2018-08-20T19:42:58.927Z,69.30
2018-08-20T19:45:31.939Z,69.20
2018-08-20T19:48:02.258Z,69.20
2018-08-20T19:50:33.400Z,70.20
2018-08-20T19:53:20.225Z,71.50
2018-08-20T19:55:51.701Z,70.90
2018-08-20T19:58:25.655Z,70.90
2018-08-20T20:01:05.734Z,71.10
2018-08-20T20:03:35.750Z,71.60
2018-08-20T20:06:05.227Z,71.80
2018-08-20T20:08:34.140Z,72.00
2018-08-20T20:11:05.105Z,72.20
2018-08-20T20:13:34.967Z,72.70
2018-08-20T20:16:03.752Z,72.70
2018-08-20T20:18:33.193Z,72.90
2018-08-20T20:21:02.087Z,73.20
2018-08-20T20:23:32.428Z,73.50
2018-08-20T20:26:03.414Z,74.10
2018-08-20T20:28:32.646Z,74.80
2018-08-20T20:31:03.878Z,75.00
2018-08-20T20:33:33.505Z,75.40
2018-08-20T20:36:04.880Z,75.50
2018-08-20T20:38:33.842Z,75.60
2018-08-20T20:41:05.416Z,75.60
2018-08-20T20:43:39.265Z,75.80
2018-08-20T20:46:10.719Z,75.70
2018-08-20T20:48:41.912Z,75.80
2018-08-20T20:51:10.756Z,76.00
2018-08-20T20:53:42.718Z,75.90
2018-08-20T20:56:11.624Z,75.70
2018-08-20T20:58:41.746Z,75.80
2018-08-20T21:01:13.594Z,76.40
2018-08-20T21:03:42.565Z,77.00
2018-08-20T21:06:11.419Z,77.20
2018-08-20T21:08:44.413Z,76.60
2018-08-20T21:11:14.540Z,77.50
2018-08-20T21:13:43.888Z,77.70
2018-08-20T21:16:13.874Z,77.50
2018-08-20T21:18:47.160Z,77.70
2018-08-20T21:21:20.929Z,78.50
2018-08-20T21:23:49.975Z,78.00
2018-08-20T21:26:19.777Z,78.00
2018-08-20T21:28:49.981Z,77.90
2018-08-20T21:31:20.234Z,77.30
2018-08-20T21:33:53.414Z,77.30
2018-08-20T21:36:22.436Z,77.30
2018-08-20T21:39:05.144Z,77.50
2018-08-20T21:41:34.571Z,78.20
2018-08-20T21:44:03.439Z,78.00
2018-08-20T21:46:32.252Z,78.20
2018-08-20T21:49:01.868Z,78.40
2018-08-20T21:51:37.403Z,78.10
2018-08-20T21:54:06.656Z,77.80
2018-08-20T21:56:46.622Z,78.20
2018-08-20T21:59:17.178Z,78.50
2018-08-20T22:01:47.728Z,79.20
2018-08-20T22:04:21.875Z,79.20
2018-08-20T22:06:51.215Z,79.20
2018-08-20T22:09:21.376Z,79.20
2018-08-20T22:11:54.978Z,79.20
2018-08-20T22:14:24.033Z,79.20
2018-08-20T22:16:52.865Z,79.20
2018-08-20T22:19:21.743Z,79.30
2018-08-20T22:21:50.628Z,79.30
2018-08-20T22:24:20.450Z,78.50
2018-08-20T22:26:55.642Z,78.10
2018-08-20T22:29:24.818Z,77.80
2018-08-20T22:31:56.814Z,78.20
2018-08-20T22:34:28.233Z,78.40
2018-08-20T22:37:01.224Z,78.70
2018-08-20T22:39:30.152Z,79.30
2018-08-20T22:41:58.972Z,79.00
2018-08-20T22:44:27.829Z,78.80
2018-08-20T22:46:56.640Z,79.10
2018-08-20T22:49:25.428Z,79.10
2018-08-20T22:51:54.263Z,79.00
2018-08-20T22:54:23.150Z,79.40
2018-08-20T22:56:51.986Z,80.00
2018-08-20T22:59:20.795Z,79.90
2018-08-20T23:01:49.656Z,79.80
2018-08-20T23:04:18.472Z,79.50
2018-08-20T23:06:47.348Z,79.80
2018-08-20T23:09:28.802Z,79.80
2018-08-20T23:11:57.654Z,80.40
2018-08-20T23:14:27.044Z,81.00
2018-08-20T23:16:55.874Z,81.80
2018-08-20T23:19:24.833Z,82.00
2018-08-20T23:21:54.048Z,82.00
2018-08-20T23:24:22.854Z,82.00
2018-08-20T23:26:51.738Z,83.00
2018-08-20T23:29:20.523Z,82.50
2018-08-20T23:31:49.355Z,81.90
2018-08-20T23:34:18.189Z,81.80
2018-08-20T23:36:46.996Z,82.50
2018-08-20T23:39:17.159Z,82.50
2018-08-20T23:41:46.062Z,82.10
2018-08-20T23:44:17.034Z,82.40
2018-08-20T23:46:52.698Z,82.50
2018-08-20T23:49:29.553Z,82.50
2018-08-20T23:51:58.564Z,82.30
2018-08-20T23:54:27.366Z,81.70
2018-08-20T23:56:56.224Z,81.50
2018-08-20T23:59:25.043Z,81.40
